sensor_id;sensor_type;location;lat;lon;timestamp;P1;durP1;ratioP1;P2;durP2;ratioP2
15573;SDS011;7888;46.748;8.102;2022-08-11T00:02:40;1.35;;;1.25;;
15573;SDS011;7888;46.748;8.102;2022-08-11T00:05:18;1.45;;;1.30;;
15573;SDS011;7888;46.748;8.102;2022-08-11T00:10:16;3.08;;;1.30;;
15573;SDS011;7888;46.748;8.102;2022-08-11T00:12:54;3.13;;;1.40;;
15573;SDS011;7888;46.748;8.102;2022-08-11T00:15:37;1.48;;;1.38;;
15573;SDS011;7888;46.748;8.102;2022-08-11T00:18:08;1.40;;;1.30;;
15573;SDS011;7888;46.748;8.102;2022-08-11T00:20:37;1.40;;;1.30;;
15573;SDS011;7888;46.748;8.102;2022-08-11T00:23:13;1.48;;;1.33;;
15573;SDS011;7888;46.748;8.102;2022-08-11T00:25:43;1.75;;;1.33;;
15573;SDS011;7888;46.748;8.102;2022-08-11T00:28:32;1.38;;;1.27;;
15573;SDS011;7888;46.748;8.102;2022-08-11T00:31:03;1.73;;;1.23;;
15573;SDS011;7888;46.748;8.102;2022-08-11T00:33:37;1.60;;;1.50;;
15573;SDS011;7888;46.748;8.102;2022-08-11T00:36:09;1.20;;;1.17;;
15573;SDS011;7888;46.748;8.102;2022-08-11T00:38:41;1.63;;;1.30;;
15573;SDS011;7888;46.748;8.102;2022-08-11T00:41:30;2.38;;;1.70;;
15573;SDS011;7888;46.748;8.102;2022-08-11T00:50:51;1.55;;;1.45;;
15573;SDS011;7888;46.748;8.102;2022-08-11T01:02:40;1.35;;;1.25;;
15573;SDS011;7888;46.748;8.102;2022-08-11T01:08:35;1.55;;;1.45;;
15573;SDS011;7888;46.748;8.102;2022-08-11T01:11:23;1.40;;;1.30;;
15573;SDS011;7888;46.748;8.102;2022-08-11T01:35:47;1.30;;;1.20;;
15573;SDS011;7888;46.748;8.102;2022-08-11T01:39:20;1.05;;;1.05;;
15573;SDS011;7888;46.748;8.102;2022-08-11T01:42:09;1.63;;;1.30;;
15573;SDS011;7888;46.748;8.102;2022-08-11T01:59:27;1.50;;;1.33;;
15573;SDS011;7888;46.748;8.102;2022-08-11T02:08:04;2.78;;;1.33;;
15573;SDS011;7888;46.748;8.102;2022-08-11T02:11:08;1.75;;;1.30;;
15573;SDS011;7888;46.748;8.102;2022-08-11T02:31:23;1.70;;;1.60;;
15573;SDS011;7888;46.748;8.102;2022-08-11T02:37:52;1.60;;;1.50;;
15573;SDS011;7888;46.748;8.102;2022-08-11T02:40:48;1.63;;;1.52;;
15573;SDS011;7888;46.748;8.102;2022-08-11T02:43:23;1.67;;;1.58;;
15573;SDS011;7888;46.748;8.102;2022-08-11T02:48:57;1.98;;;1.52;;
15573;SDS011;7888;46.748;8.102;2022-08-11T02:52:06;1.92;;;1.70;;
15573;SDS011;7888;46.748;8.102;2022-08-11T02:54:51;1.70;;;1.60;;
15573;SDS011;7888;46.748;8.102;2022-08-11T02:57:36;1.45;;;1.35;;
15573;SDS011;7888;46.748;8.102;2022-08-11T03:00:23;2.15;;;1.60;;
15573;SDS011;7888;46.748;8.102;2022-08-11T03:03:06;2.00;;;1.80;;
15573;SDS011;7888;46.748;8.102;2022-08-11T03:06:07;1.60;;;1.50;;
15573;SDS011;7888;46.748;8.102;2022-08-11T03:08:53;1.65;;;1.50;;
15573;SDS011;7888;46.748;8.102;2022-08-11T03:11:55;1.92;;;1.73;;
15573;SDS011;7888;46.748;8.102;2022-08-11T03:15:01;3.25;;;1.75;;
15573;SDS011;7888;46.748;8.102;2022-08-11T03:33:24;1.55;;;1.45;;
15573;SDS011;7888;46.748;8.102;2022-08-11T03:42:39;1.73;;;1.63;;
15573;SDS011;7888;46.748;8.102;2022-08-11T03:50:34;1.50;;;1.40;;
15573;SDS011;7888;46.748;8.102;2022-08-11T04:31:15;1.63;;;1.50;;
15573;SDS011;7888;46.748;8.102;2022-08-11T04:57:51;2.50;;;1.80;;
15573;SDS011;7888;46.748;8.102;2022-08-11T05:01:05;1.98;;;1.70;;
15573;SDS011;7888;46.748;8.102;2022-08-11T05:13:50;3.42;;;1.92;;
15573;SDS011;7888;46.748;8.102;2022-08-11T05:16:55;2.22;;;2.00;;
15573;SDS011;7888;46.748;8.102;2022-08-11T05:19:48;2.00;;;1.90;;
15573;SDS011;7888;46.748;8.102;2022-08-11T05:22:33;2.67;;;1.70;;
15573;SDS011;7888;46.748;8.102;2022-08-11T05:25:21;2.35;;;1.60;;
15573;SDS011;7888;46.748;8.102;2022-08-11T05:28:30;3.83;;;1.95;;
15573;SDS011;7888;46.748;8.102;2022-08-11T05:31:24;1.85;;;1.70;;
15573;SDS011;7888;46.748;8.102;2022-08-11T05:34:20;2.42;;;1.60;;
15573;SDS011;7888;46.748;8.102;2022-08-11T05:37:19;1.90;;;1.70;;
15573;SDS011;7888;46.748;8.102;2022-08-11T05:40:10;2.28;;;2.08;;
15573;SDS011;7888;46.748;8.102;2022-08-11T05:42:58;2.20;;;2.00;;
15573;SDS011;7888;46.748;8.102;2022-08-11T05:46:01;2.00;;;1.90;;
15573;SDS011;7888;46.748;8.102;2022-08-11T05:48:49;2.03;;;1.80;;
15573;SDS011;7888;46.748;8.102;2022-08-11T05:51:36;2.45;;;2.20;;
15573;SDS011;7888;46.748;8.102;2022-08-11T05:54:25;1.80;;;1.70;;
15573;SDS011;7888;46.748;8.102;2022-08-11T05:57:21;3.35;;;1.77;;
15573;SDS011;7888;46.748;8.102;2022-08-11T05:59:59;2.00;;;1.75;;
15573;SDS011;7888;46.748;8.102;2022-08-11T06:02:41;1.90;;;1.80;;
15573;SDS011;7888;46.748;8.102;2022-08-11T06:05:15;2.00;;;1.80;;
15573;SDS011;7888;46.748;8.102;2022-08-11T06:07:41;1.90;;;1.65;;
15573;SDS011;7888;46.748;8.102;2022-08-11T06:10:09;1.98;;;1.70;;
15573;SDS011;7888;46.748;8.102;2022-08-11T06:12:37;2.28;;;1.90;;
15573;SDS011;7888;46.748;8.102;2022-08-11T06:15:05;2.50;;;1.92;;
15573;SDS011;7888;46.748;8.102;2022-08-11T06:17:42;2.05;;;1.85;;
15573;SDS011;7888;46.748;8.102;2022-08-11T06:20:11;2.10;;;2.00;;
15573;SDS011;7888;46.748;8.102;2022-08-11T06:22:47;2.10;;;2.00;;
15573;SDS011;7888;46.748;8.102;2022-08-11T06:25:25;2.42;;;2.22;;
15573;SDS011;7888;46.748;8.102;2022-08-11T06:28:01;2.40;;;2.20;;
15573;SDS011;7888;46.748;8.102;2022-08-11T06:30:33;2.10;;;1.90;;
15573;SDS011;7888;46.748;8.102;2022-08-11T06:33:10;2.17;;;2.05;;
15573;SDS011;7888;46.748;8.102;2022-08-11T06:42:00;2.60;;;2.28;;
15573;SDS011;7888;46.748;8.102;2022-08-11T06:44:38;2.40;;;2.05;;
15573;SDS011;7888;46.748;8.102;2022-08-11T06:47:10;2.33;;;2.13;;
15573;SDS011;7888;46.748;8.102;2022-08-11T06:49:42;2.92;;;1.98;;
15573;SDS011;7888;46.748;8.102;2022-08-11T06:52:35;3.75;;;2.08;;
15573;SDS011;7888;46.748;8.102;2022-08-11T06:58:05;2.45;;;2.33;;
15573;SDS011;7888;46.748;8.102;2022-08-11T07:01:04;5.47;;;2.58;;
15573;SDS011;7888;46.748;8.102;2022-08-11T07:03:38;2.03;;;1.90;;
15573;SDS011;7888;46.748;8.102;2022-08-11T07:06:17;2.40;;;2.20;;
15573;SDS011;7888;46.748;8.102;2022-08-11T07:13:08;2.17;;;2.08;;
15573;SDS011;7888;46.748;8.102;2022-08-11T07:15:59;2.42;;;2.22;;
15573;SDS011;7888;46.748;8.102;2022-08-11T07:18:28;2.40;;;2.20;;
15573;SDS011;7888;46.748;8.102;2022-08-11T07:21:29;2.42;;;2.22;;
15573;SDS011;7888;46.748;8.102;2022-08-11T07:24:19;2.42;;;2.10;;
15573;SDS011;7888;46.748;8.102;2022-08-11T07:27:10;2.53;;;2.33;;
15573;SDS011;7888;46.748;8.102;2022-08-11T07:30:04;4.22;;;2.10;;
15573;SDS011;7888;46.748;8.102;2022-08-11T07:32:36;2.33;;;2.00;;
15573;SDS011;7888;46.748;8.102;2022-08-11T07:35:32;4.40;;;2.40;;
15573;SDS011;7888;46.748;8.102;2022-08-11T07:38:06;2.13;;;2.03;;
15573;SDS011;7888;46.748;8.102;2022-08-11T07:40:40;4.60;;;1.95;;
15573;SDS011;7888;46.748;8.102;2022-08-11T07:43:07;2.03;;;1.92;;
15573;SDS011;7888;46.748;8.102;2022-08-11T07:45:41;2.42;;;2.17;;
15573;SDS011;7888;46.748;8.102;2022-08-11T07:48:27;2.20;;;2.10;;
15573;SDS011;7888;46.748;8.102;2022-08-11T07:51:19;2.30;;;2.10;;
15573;SDS011;7888;46.748;8.102;2022-08-11T07:54:05;2.30;;;2.10;;
15573;SDS011;7888;46.748;8.102;2022-08-11T07:56:34;2.22;;;2.03;;
15573;SDS011;7888;46.748;8.102;2022-08-11T07:59:02;4.63;;;2.40;;
15573;SDS011;7888;46.748;8.102;2022-08-11T08:01:48;2.33;;;1.88;;
15573;SDS011;7888;46.748;8.102;2022-08-11T08:04:33;3.78;;;1.88;;
15573;SDS011;7888;46.748;8.102;2022-08-11T08:07:19;4.70;;;3.30;;
15573;SDS011;7888;46.748;8.102;2022-08-11T08:10:06;2.70;;;2.40;;
15573;SDS011;7888;46.748;8.102;2022-08-11T08:12:53;2.63;;;2.42;;
15573;SDS011;7888;46.748;8.102;2022-08-11T08:15:39;3.78;;;2.17;;
15573;SDS011;7888;46.748;8.102;2022-08-11T08:18:25;1.80;;;1.70;;
15573;SDS011;7888;46.748;8.102;2022-08-11T08:20:53;1.92;;;1.83;;
15573;SDS011;7888;46.748;8.102;2022-08-11T08:23:35;2.10;;;2.00;;
15573;SDS011;7888;46.748;8.102;2022-08-11T08:26:06;2.58;;;1.83;;
15573;SDS011;7888;46.748;8.102;2022-08-11T08:28:57;2.17;;;1.98;;
15573;SDS011;7888;46.748;8.102;2022-08-11T08:31:46;2.67;;;2.00;;
15573;SDS011;7888;46.748;8.102;2022-08-11T08:34:14;2.15;;;1.95;;
15573;SDS011;7888;46.748;8.102;2022-08-11T08:36:47;2.65;;;2.03;;
15573;SDS011;7888;46.748;8.102;2022-08-11T08:39:18;2.55;;;2.35;;
15573;SDS011;7888;46.748;8.102;2022-08-11T08:41:48;1.98;;;1.88;;
15573;SDS011;7888;46.748;8.102;2022-08-11T08:44:20;4.30;;;1.95;;
15573;SDS011;7888;46.748;8.102;2022-08-11T08:46:49;2.60;;;2.33;;
15573;SDS011;7888;46.748;8.102;2022-08-11T08:49:33;3.20;;;2.00;;
15573;SDS011;7888;46.748;8.102;2022-08-11T08:52:04;3.17;;;2.08;;
15573;SDS011;7888;46.748;8.102;2022-08-11T08:54:34;2.10;;;1.85;;
15573;SDS011;7888;46.748;8.102;2022-08-11T08:57:03;1.70;;;1.60;;
15573;SDS011;7888;46.748;8.102;2022-08-11T08:59:34;2.25;;;2.00;;
15573;SDS011;7888;46.748;8.102;2022-08-11T09:02:05;2.20;;;2.10;;
15573;SDS011;7888;46.748;8.102;2022-08-11T09:04:37;2.17;;;2.00;;
15573;SDS011;7888;46.748;8.102;2022-08-11T09:07:09;1.98;;;1.85;;
15573;SDS011;7888;46.748;8.102;2022-08-11T09:09:49;2.00;;;1.85;;
15573;SDS011;7888;46.748;8.102;2022-08-11T09:12:18;2.45;;;2.25;;
15573;SDS011;7888;46.748;8.102;2022-08-11T09:14:48;3.28;;;2.20;;
15573;SDS011;7888;46.748;8.102;2022-08-11T09:17:49;1.88;;;1.77;;
15573;SDS011;7888;46.748;8.102;2022-08-11T09:20:30;2.58;;;2.00;;
15573;SDS011;7888;46.748;8.102;2022-08-11T09:23:04;2.20;;;2.00;;
15573;SDS011;7888;46.748;8.102;2022-08-11T09:25:58;1.90;;;1.73;;
15573;SDS011;7888;46.748;8.102;2022-08-11T09:28:45;2.05;;;1.80;;
15573;SDS011;7888;46.748;8.102;2022-08-11T09:31:13;2.38;;;1.85;;
15573;SDS011;7888;46.748;8.102;2022-08-11T09:33:42;2.08;;;1.92;;
15573;SDS011;7888;46.748;8.102;2022-08-11T09:36:09;3.30;;;2.00;;
15573;SDS011;7888;46.748;8.102;2022-08-11T09:38:56;2.15;;;1.80;;
15573;SDS011;7888;46.748;8.102;2022-08-11T09:41:43;1.80;;;1.70;;
15573;SDS011;7888;46.748;8.102;2022-08-11T09:44:10;2.28;;;2.08;;
15573;SDS011;7888;46.748;8.102;2022-08-11T09:46:56;2.50;;;1.95;;
15573;SDS011;7888;46.748;8.102;2022-08-11T09:49:25;2.05;;;1.95;;
15573;SDS011;7888;46.748;8.102;2022-08-11T09:51:53;1.73;;;1.63;;
15573;SDS011;7888;46.748;8.102;2022-08-11T09:54:20;1.83;;;1.73;;
15573;SDS011;7888;46.748;8.102;2022-08-11T09:56:51;1.73;;;1.63;;
15573;SDS011;7888;46.748;8.102;2022-08-11T09:59:36;1.83;;;1.70;;
15573;SDS011;7888;46.748;8.102;2022-08-11T10:02:04;2.38;;;2.10;;
15573;SDS011;7888;46.748;8.102;2022-08-11T10:04:39;2.58;;;2.00;;
15573;SDS011;7888;46.748;8.102;2022-08-11T10:07:09;1.88;;;1.42;;
15573;SDS011;7888;46.748;8.102;2022-08-11T10:14:53;3.05;;;1.75;;
15573;SDS011;7888;46.748;8.102;2022-08-11T10:17:45;2.03;;;1.80;;
15573;SDS011;7888;46.748;8.102;2022-08-11T10:20:36;1.80;;;1.60;;
15573;SDS011;7888;46.748;8.102;2022-08-11T10:23:04;2.47;;;1.83;;
15573;SDS011;7888;46.748;8.102;2022-08-11T10:25:54;1.50;;;1.40;;
15573;SDS011;7888;46.748;8.102;2022-08-11T10:28:40;2.15;;;1.60;;
15573;SDS011;7888;46.748;8.102;2022-08-11T10:31:08;1.75;;;1.65;;
15573;SDS011;7888;46.748;8.102;2022-08-11T10:33:53;1.85;;;1.33;;
15573;SDS011;7888;46.748;8.102;2022-08-11T10:36:33;2.30;;;1.55;;
15573;SDS011;7888;46.748;8.102;2022-08-11T10:39:09;1.92;;;1.83;;
15573;SDS011;7888;46.748;8.102;2022-08-11T10:41:46;1.73;;;1.63;;
15573;SDS011;7888;46.748;8.102;2022-08-11T10:44:35;2.70;;;1.70;;
15573;SDS011;7888;46.748;8.102;2022-08-11T10:47:05;1.67;;;1.55;;
15573;SDS011;7888;46.748;8.102;2022-08-11T10:49:53;2.60;;;1.65;;
15573;SDS011;7888;46.748;8.102;2022-08-11T10:52:39;1.75;;;1.50;;
15573;SDS011;7888;46.748;8.102;2022-08-11T10:55:25;3.33;;;2.00;;
15573;SDS011;7888;46.748;8.102;2022-08-11T10:58:10;1.90;;;1.80;;
15573;SDS011;7888;46.748;8.102;2022-08-11T11:00:56;1.80;;;1.70;;
15573;SDS011;7888;46.748;8.102;2022-08-11T11:03:24;1.85;;;1.70;;
15573;SDS011;7888;46.748;8.102;2022-08-11T11:05:55;1.73;;;1.63;;
15573;SDS011;7888;46.748;8.102;2022-08-11T11:08:31;2.20;;;2.00;;
15573;SDS011;7888;46.748;8.102;2022-08-11T11:11:18;2.20;;;2.03;;
15573;SDS011;7888;46.748;8.102;2022-08-11T11:14:08;2.10;;;1.90;;
15573;SDS011;7888;46.748;8.102;2022-08-11T11:16:59;2.50;;;1.90;;
15573;SDS011;7888;46.748;8.102;2022-08-11T11:19:38;2.00;;;1.90;;
15573;SDS011;7888;46.748;8.102;2022-08-11T11:22:06;1.92;;;1.83;;
15573;SDS011;7888;46.748;8.102;2022-08-11T11:33:54;2.17;;;1.95;;
15573;SDS011;7888;46.748;8.102;2022-08-11T11:36:56;2.00;;;1.90;;
15573;SDS011;7888;46.748;8.102;2022-08-11T11:39:26;2.00;;;1.80;;
15573;SDS011;7888;46.748;8.102;2022-08-11T11:41:56;2.08;;;1.95;;
15573;SDS011;7888;46.748;8.102;2022-08-11T11:44:27;1.88;;;1.77;;
15573;SDS011;7888;46.748;8.102;2022-08-11T11:46:54;2.42;;;2.03;;
15573;SDS011;7888;46.748;8.102;2022-08-11T11:49:24;1.98;;;1.88;;
15573;SDS011;7888;46.748;8.102;2022-08-11T11:51:54;2.72;;;1.83;;
15573;SDS011;7888;46.748;8.102;2022-08-11T11:54:25;2.08;;;1.80;;
15573;SDS011;7888;46.748;8.102;2022-08-11T11:56:55;2.00;;;1.90;;
15573;SDS011;7888;46.748;8.102;2022-08-11T11:59:43;2.55;;;1.85;;
15573;SDS011;7888;46.748;8.102;2022-08-11T12:02:28;2.25;;;2.15;;
15573;SDS011;7888;46.748;8.102;2022-08-11T12:04:54;2.10;;;2.00;;
15573;SDS011;7888;46.748;8.102;2022-08-11T12:07:21;3.15;;;1.95;;
15573;SDS011;7888;46.748;8.102;2022-08-11T12:10:06;3.33;;;2.08;;
15573;SDS011;7888;46.748;8.102;2022-08-11T12:12:33;2.92;;;2.35;;
15573;SDS011;7888;46.748;8.102;2022-08-11T12:15:18;2.15;;;2.00;;
15573;SDS011;7888;46.748;8.102;2022-08-11T12:17:45;2.35;;;2.10;;
15573;SDS011;7888;46.748;8.102;2022-08-11T12:20:11;3.80;;;1.90;;
15573;SDS011;7888;46.748;8.102;2022-08-11T12:22:43;2.30;;;1.75;;
15573;SDS011;7888;46.748;8.102;2022-08-11T12:25:28;2.35;;;1.88;;
15573;SDS011;7888;46.748;8.102;2022-08-11T12:28:13;1.70;;;1.60;;
15573;SDS011;7888;46.748;8.102;2022-08-11T12:30:39;2.00;;;1.90;;
15573;SDS011;7888;46.748;8.102;2022-08-11T12:33:06;2.25;;;2.03;;
15573;SDS011;7888;46.748;8.102;2022-08-11T12:35:34;1.88;;;1.77;;
15573;SDS011;7888;46.748;8.102;2022-08-11T12:38:01;3.58;;;1.80;;
15573;SDS011;7888;46.748;8.102;2022-08-11T12:40:29;2.08;;;1.98;;
15573;SDS011;7888;46.748;8.102;2022-08-11T12:43:16;2.15;;;2.05;;
15573;SDS011;7888;46.748;8.102;2022-08-11T12:46:08;2.30;;;2.10;;
15573;SDS011;7888;46.748;8.102;2022-08-11T12:48:44;2.28;;;2.05;;
15573;SDS011;7888;46.748;8.102;2022-08-11T12:51:35;2.20;;;2.00;;
15573;SDS011;7888;46.748;8.102;2022-08-11T12:54:30;2.40;;;2.20;;
15573;SDS011;7888;46.748;8.102;2022-08-11T12:57:07;2.40;;;2.00;;
15573;SDS011;7888;46.748;8.102;2022-08-11T13:00:00;2.03;;;1.80;;
15573;SDS011;7888;46.748;8.102;2022-08-11T13:02:47;3.28;;;2.72;;
15573;SDS011;7888;46.748;8.102;2022-08-11T13:05:32;2.10;;;1.95;;
15573;SDS011;7888;46.748;8.102;2022-08-11T13:07:59;2.20;;;2.10;;
15573;SDS011;7888;46.748;8.102;2022-08-11T13:10:28;2.38;;;2.28;;
15573;SDS011;7888;46.748;8.102;2022-08-11T13:13:15;2.80;;;2.22;;
15573;SDS011;7888;46.748;8.102;2022-08-11T13:15:45;1.98;;;1.88;;
15573;SDS011;7888;46.748;8.102;2022-08-11T13:18:14;2.30;;;2.10;;
15573;SDS011;7888;46.748;8.102;2022-08-11T13:20:43;2.30;;;2.15;;
15573;SDS011;7888;46.748;8.102;2022-08-11T13:23:12;2.10;;;2.00;;
15573;SDS011;7888;46.748;8.102;2022-08-11T13:25:40;2.30;;;2.20;;
15573;SDS011;7888;46.748;8.102;2022-08-11T13:28:08;2.20;;;2.00;;
15573;SDS011;7888;46.748;8.102;2022-08-11T13:30:36;4.05;;;2.17;;
15573;SDS011;7888;46.748;8.102;2022-08-11T13:33:21;2.50;;;2.00;;
15573;SDS011;7888;46.748;8.102;2022-08-11T13:35:49;1.98;;;1.80;;
15573;SDS011;7888;46.748;8.102;2022-08-11T13:38:18;2.17;;;1.98;;
15573;SDS011;7888;46.748;8.102;2022-08-11T13:40:48;1.85;;;1.75;;
15573;SDS011;7888;46.748;8.102;2022-08-11T13:43:17;3.17;;;2.40;;
15573;SDS011;7888;46.748;8.102;2022-08-11T13:45:46;2.10;;;1.85;;
15573;SDS011;7888;46.748;8.102;2022-08-11T13:48:14;1.98;;;1.88;;
15573;SDS011;7888;46.748;8.102;2022-08-11T13:50:41;2.47;;;1.80;;
15573;SDS011;7888;46.748;8.102;2022-08-11T13:53:29;2.38;;;1.60;;
15573;SDS011;7888;46.748;8.102;2022-08-11T13:55:57;1.92;;;1.73;;
15573;SDS011;7888;46.748;8.102;2022-08-11T13:58:24;2.03;;;1.90;;
15573;SDS011;7888;46.748;8.102;2022-08-11T14:00:52;2.50;;;2.30;;
15573;SDS011;7888;46.748;8.102;2022-08-11T14:03:20;2.13;;;1.92;;
15573;SDS011;7888;46.748;8.102;2022-08-11T14:05:51;2.15;;;1.90;;
15573;SDS011;7888;46.748;8.102;2022-08-11T14:08:25;2.65;;;1.92;;
15573;SDS011;7888;46.748;8.102;2022-08-11T14:10:58;1.77;;;1.65;;
15573;SDS011;7888;46.748;8.102;2022-08-11T14:13:46;2.65;;;1.92;;
15573;SDS011;7888;46.748;8.102;2022-08-11T14:16:20;1.92;;;1.83;;
15573;SDS011;7888;46.748;8.102;2022-08-11T14:19:00;2.33;;;1.88;;
15573;SDS011;7888;46.748;8.102;2022-08-11T14:21:33;2.50;;;1.85;;
15573;SDS011;7888;46.748;8.102;2022-08-11T14:24:22;2.83;;;1.80;;
15573;SDS011;7888;46.748;8.102;2022-08-11T14:26:50;3.20;;;1.77;;
15573;SDS011;7888;46.748;8.102;2022-08-11T14:29:19;2.85;;;1.70;;
15573;SDS011;7888;46.748;8.102;2022-08-11T14:31:49;2.22;;;1.85;;
15573;SDS011;7888;46.748;8.102;2022-08-11T14:34:20;2.05;;;1.95;;
15573;SDS011;7888;46.748;8.102;2022-08-11T14:36:51;2.10;;;2.00;;
15573;SDS011;7888;46.748;8.102;2022-08-11T14:39:27;2.15;;;2.05;;
15573;SDS011;7888;46.748;8.102;2022-08-11T14:42:00;2.65;;;2.45;;
15573;SDS011;7888;46.748;8.102;2022-08-11T14:44:50;1.85;;;1.75;;
15573;SDS011;7888;46.748;8.102;2022-08-11T14:47:42;2.00;;;1.50;;
15573;SDS011;7888;46.748;8.102;2022-08-11T14:50:18;2.10;;;1.90;;
15573;SDS011;7888;46.748;8.102;2022-08-11T14:52:49;2.00;;;1.85;;
15573;SDS011;7888;46.748;8.102;2022-08-11T14:55:31;3.00;;;2.00;;
15573;SDS011;7888;46.748;8.102;2022-08-11T14:58:22;2.00;;;1.90;;
15573;SDS011;7888;46.748;8.102;2022-08-11T15:00:57;1.92;;;1.83;;
15573;SDS011;7888;46.748;8.102;2022-08-11T15:03:27;2.03;;;1.80;;
15573;SDS011;7888;46.748;8.102;2022-08-11T15:06:00;2.13;;;1.75;;
